createdAt,value
2024-01-30T00:01:43.866Z,-2.10
2024-01-30T00:04:15.930Z,-2.20
2024-01-30T00:06:46.321Z,-2.30
2024-01-30T00:09:17.222Z,-2.50
2024-01-30T00:11:47.609Z,-2.60
2024-01-30T00:14:18.413Z,-2.70
2024-01-30T00:16:48.855Z,-2.80
2024-01-30T00:19:21.014Z,-2.90
2024-01-30T00:21:51.351Z,-3.00
2024-01-30T00:24:21.867Z,-3.20
2024-01-30T00:26:52.319Z,-3.30
2024-01-30T00:29:24.658Z,-3.40
2024-01-30T00:31:55.124Z,-3.60
2024-01-30T00:34:27.428Z,-3.70
2024-01-30T00:36:57.924Z,-3.90
2024-01-30T00:39:28.424Z,-3.90
2024-01-30T00:41:58.794Z,-4.00
2024-01-30T00:44:29.164Z,-4.20
2024-01-30T00:46:59.506Z,-4.40
2024-01-30T00:49:32.757Z,-4.50
2024-01-30T00:52:03.063Z,-4.60
2024-01-30T00:54:33.657Z,-4.60
2024-01-30T00:57:03.802Z,-4.60
2024-01-30T00:59:33.964Z,-4.60
2024-01-30T01:02:04.228Z,-4.60
2024-01-30T01:04:36.098Z,-4.60
2024-01-30T01:07:07.046Z,-4.60
2024-01-30T01:09:40.781Z,-4.60
2024-01-30T01:12:11.386Z,-4.60
2024-01-30T01:14:44.757Z,-4.50
2024-01-30T01:17:18.939Z,-4.50
2024-01-30T01:19:51.443Z,-4.70
2024-01-30T01:22:28.791Z,-4.80
2024-01-30T01:24:59.129Z,-5.00
2024-01-30T01:27:32.539Z,-5.10
2024-01-30T01:30:02.910Z,-5.20
2024-01-30T01:32:33.310Z,-5.20
2024-01-30T01:35:07.439Z,-5.20
2024-01-30T01:37:37.931Z,-5.20
2024-01-30T01:40:10.574Z,-5.10
2024-01-30T01:42:41.012Z,-5.10
2024-01-30T01:45:11.985Z,-5.10
2024-01-30T01:47:45.083Z,-5.00
2024-01-30T01:50:17.222Z,-5.00
2024-01-30T01:52:48.758Z,-4.90
2024-01-30T01:55:20.435Z,-4.80
2024-01-30T01:57:50.908Z,-4.80
2024-01-30T02:00:21.838Z,-4.80
2024-01-30T02:02:53.131Z,-4.80
2024-01-30T02:05:26.658Z,-4.70
2024-01-30T02:07:58.225Z,-4.70
2024-01-30T02:10:28.682Z,-4.70
2024-01-30T02:12:58.986Z,-4.60
2024-01-30T02:15:29.129Z,-4.60
2024-01-30T02:17:59.552Z,-4.50
2024-01-30T02:20:33.705Z,-4.50
2024-01-30T02:23:05.881Z,-4.50
2024-01-30T02:25:40.511Z,-4.50
2024-01-30T02:28:11.262Z,-4.60
2024-01-30T02:30:41.407Z,-4.60
2024-01-30T02:33:11.705Z,-4.70
2024-01-30T02:35:42.151Z,-4.90
2024-01-30T02:38:13.994Z,-4.90
2024-01-30T02:40:44.169Z,-5.00
2024-01-30T02:43:15.355Z,-5.00
2024-01-30T02:45:45.540Z,-5.10
2024-01-30T02:48:15.985Z,-5.10
2024-01-30T02:50:46.335Z,-5.10
2024-01-30T02:53:18.110Z,-5.00
2024-01-30T02:55:48.210Z,-5.00
2024-01-30T02:58:18.563Z,-4.90
2024-01-30T03:00:48.769Z,-4.90
2024-01-30T03:03:19.016Z,-4.80
2024-01-30T03:05:49.139Z,-4.80
2024-01-30T03:08:21.463Z,-4.90
2024-01-30T03:10:51.642Z,-5.00
2024-01-30T03:13:21.953Z,-5.10
2024-01-30T03:15:52.605Z,-5.00
2024-01-30T03:18:25.706Z,-5.00
2024-01-30T03:20:56.120Z,-5.10
2024-01-30T03:23:28.866Z,-5.10
2024-01-30T03:25:59.098Z,-5.00
2024-01-30T03:28:29.946Z,-5.00
2024-01-30T03:31:00.971Z,-4.90
2024-01-30T03:33:32.552Z,-4.80
2024-01-30T03:36:08.179Z,-4.70
2024-01-30T03:38:40.294Z,-4.60
2024-01-30T03:41:12.455Z,-4.50
2024-01-30T03:43:42.856Z,-4.40
2024-01-30T03:46:15.069Z,-4.30
2024-01-30T03:48:45.520Z,-4.20
2024-01-30T03:51:17.701Z,-4.10
2024-01-30T03:53:49.537Z,-4.00
2024-01-30T03:56:19.695Z,-3.90
2024-01-30T03:58:49.894Z,-3.80
2024-01-30T04:01:20.090Z,-3.70
2024-01-30T04:03:50.357Z,-3.60
2024-01-30T04:06:20.592Z,-3.50
2024-01-30T04:08:52.327Z,-3.50
2024-01-30T04:11:23.120Z,-3.50
2024-01-30T04:13:53.354Z,-3.40
2024-01-30T04:16:24.549Z,-3.30
2024-01-30T04:18:55.970Z,-3.20
2024-01-30T04:21:26.229Z,-3.20
2024-01-30T04:23:58.196Z,-3.10
2024-01-30T04:26:29.483Z,-3.10
2024-01-30T04:28:59.794Z,-3.00
2024-01-30T04:31:30.002Z,-2.90
2024-01-30T04:34:00.398Z,-2.90
2024-01-30T04:36:30.646Z,-2.90
2024-01-30T04:39:02.441Z,-2.90
2024-01-30T04:41:34.066Z,-2.90
2024-01-30T04:44:04.233Z,-2.80
2024-01-30T04:46:35.825Z,-2.80
2024-01-30T04:49:06.767Z,-2.80
2024-01-30T04:51:36.956Z,-2.80
2024-01-30T04:54:08.868Z,-2.80
2024-01-30T04:56:39.002Z,-2.80
2024-01-30T04:59:10.309Z,-2.80
2024-01-30T05:01:40.549Z,-2.80
2024-01-30T05:04:17.010Z,-2.80
2024-01-30T05:06:47.854Z,-2.80
2024-01-30T05:09:20.578Z,-2.80
2024-01-30T05:11:50.796Z,-2.70
2024-01-30T05:14:21.167Z,-2.70
2024-01-30T05:16:51.291Z,-2.70
2024-01-30T05:19:25.020Z,-2.70
2024-01-30T05:21:55.941Z,-2.70
2024-01-30T05:24:28.229Z,-2.70
2024-01-30T05:26:58.461Z,-2.70
2024-01-30T05:29:28.561Z,-2.70
2024-01-30T05:31:59.118Z,-2.70
2024-01-30T05:34:29.325Z,-2.70
2024-01-30T05:36:59.644Z,-2.60
2024-01-30T05:39:31.345Z,-2.60
2024-01-30T05:42:01.961Z,-2.60
2024-01-30T05:44:32.933Z,-2.60
2024-01-30T05:47:03.569Z,-2.60
2024-01-30T05:49:33.720Z,-2.60
2024-01-30T05:52:04.610Z,-2.60
2024-01-30T05:54:36.679Z,-2.60
2024-01-30T05:57:07.309Z,-2.60
2024-01-30T05:59:40.886Z,-2.60
2024-01-30T06:02:14.129Z,-2.60
2024-01-30T06:04:44.584Z,-2.60
2024-01-30T06:07:14.849Z,-2.60
2024-01-30T06:09:47.597Z,-2.60
2024-01-30T06:12:17.904Z,-2.60
2024-01-30T06:14:48.306Z,-2.50
2024-01-30T06:17:18.674Z,-2.50
2024-01-30T06:19:49.118Z,-2.50
2024-01-30T06:22:20.230Z,-2.60
2024-01-30T06:24:52.016Z,-2.60
2024-01-30T06:27:22.224Z,-2.60
2024-01-30T06:29:52.337Z,-2.60
2024-01-30T06:32:22.560Z,-2.60
2024-01-30T06:34:52.879Z,-2.60
2024-01-30T06:37:23.542Z,-2.60
2024-01-30T06:39:55.482Z,-2.70
2024-01-30T06:42:25.765Z,-2.70
2024-01-30T06:44:55.968Z,-2.70
2024-01-30T06:47:26.165Z,-2.70
2024-01-30T06:49:56.588Z,-2.70
2024-01-30T06:52:26.899Z,-2.70
2024-01-30T06:54:58.898Z,-2.70
2024-01-30T06:57:29.843Z,-2.70
2024-01-30T06:59:59.933Z,-2.70
2024-01-30T07:02:30.189Z,-2.70
2024-01-30T07:05:00.398Z,-2.70
2024-01-30T07:07:30.615Z,-2.70
2024-01-30T07:10:02.404Z,-2.70
2024-01-30T07:12:34.013Z,-2.70
2024-01-30T07:15:05.143Z,-2.70
2024-01-30T07:17:36.766Z,-2.70
2024-01-30T07:20:08.188Z,-2.70
2024-01-30T07:22:38.673Z,-2.70
2024-01-30T07:25:11.986Z,-2.80
2024-01-30T07:27:42.740Z,-2.80
2024-01-30T07:30:13.225Z,-2.80
2024-01-30T07:32:43.401Z,-2.80
2024-01-30T07:35:14.023Z,-2.80
2024-01-30T07:37:44.622Z,-2.80
2024-01-30T07:40:17.006Z,-2.80
2024-01-30T07:42:47.330Z,-2.80
2024-01-30T07:45:17.513Z,-2.80
2024-01-30T07:47:47.654Z,-2.80
2024-01-30T07:50:17.891Z,-2.80
2024-01-30T07:52:48.099Z,-2.90
2024-01-30T07:55:21.297Z,-2.90
2024-01-30T07:57:53.123Z,-2.90
2024-01-30T08:00:24.423Z,-2.90
2024-01-30T08:02:56.012Z,-2.90
2024-01-30T08:05:26.619Z,-2.90
2024-01-30T08:08:18.235Z,-2.90
2024-01-30T08:10:50.862Z,-2.90
2024-01-30T08:13:21.199Z,-3.00
2024-01-30T08:15:51.496Z,-3.00
2024-01-30T08:18:22.403Z,-3.00
2024-01-30T08:20:52.773Z,-3.00
2024-01-30T08:23:23.204Z,-3.00
2024-01-30T08:25:55.044Z,-3.00
2024-01-30T08:28:25.418Z,-3.00
2024-01-30T08:30:55.791Z,-3.00
2024-01-30T08:33:26.221Z,-3.00
2024-01-30T08:35:56.496Z,-3.00
2024-01-30T08:38:26.772Z,-3.00
2024-01-30T08:40:58.960Z,-3.00
2024-01-30T08:43:29.788Z,-3.00
2024-01-30T08:46:02.519Z,-3.00
2024-01-30T08:48:33.067Z,-3.00
2024-01-30T08:51:03.481Z,-3.00
2024-01-30T08:53:33.780Z,-3.00
2024-01-30T08:56:06.553Z,-3.00
2024-01-30T08:58:36.978Z,-3.00
2024-01-30T09:01:07.757Z,-3.10
2024-01-30T09:03:38.441Z,-3.10
2024-01-30T09:06:12.215Z,-3.10
2024-01-30T09:08:43.386Z,-3.10
2024-01-30T09:11:16.112Z,-3.10
2024-01-30T09:13:46.416Z,-3.10
2024-01-30T09:16:17.778Z,-3.10
2024-01-30T09:18:48.594Z,-3.10
2024-01-30T09:21:18.933Z,-3.10
2024-01-30T09:23:49.260Z,-3.00
2024-01-30T09:26:24.125Z,-3.10
2024-01-30T09:28:55.790Z,-3.10
2024-01-30T09:31:26.090Z,-3.10
2024-01-30T09:33:57.365Z,-3.10
2024-01-30T09:36:28.090Z,-3.10
2024-01-30T09:38:58.369Z,-3.10
2024-01-30T09:41:33.109Z,-3.10
2024-01-30T09:44:05.989Z,-3.10
2024-01-30T09:46:37.024Z,-3.10
2024-01-30T09:49:07.867Z,-3.20
2024-01-30T09:51:39.086Z,-3.20
2024-01-30T09:54:10.770Z,-3.20
2024-01-30T09:56:42.626Z,-3.20
2024-01-30T09:59:13.215Z,-3.20
2024-01-30T10:01:44.693Z,-3.20
2024-01-30T10:04:15.367Z,-3.30
2024-01-30T10:06:46.195Z,-3.40
2024-01-30T10:09:16.657Z,-3.40
2024-01-30T10:11:48.579Z,-3.50
2024-01-30T10:14:20.068Z,-3.60
2024-01-30T10:16:50.752Z,-3.60
2024-01-30T10:19:21.638Z,-3.60
2024-01-30T10:21:52.264Z,-3.60
2024-01-30T10:24:27.186Z,-3.70
2024-01-30T10:27:00.747Z,-3.70
2024-01-30T10:29:31.981Z,-3.80
2024-01-30T10:32:02.939Z,-3.90
2024-01-30T10:34:33.697Z,-3.90
2024-01-30T10:37:14.369Z,-3.90
2024-01-30T10:39:45.343Z,-4.00
2024-01-30T10:42:18.393Z,-4.10
2024-01-30T10:45:05.280Z,-4.20
2024-01-30T10:47:38.939Z,-4.20
2024-01-30T10:50:12.580Z,-4.30
2024-01-30T10:52:44.577Z,-4.40
2024-01-30T10:55:15.172Z,-4.40
2024-01-30T10:57:47.148Z,-4.50
2024-01-30T11:00:19.141Z,-4.50
2024-01-30T11:02:50.399Z,-4.50
2024-01-30T11:05:33.053Z,-4.60
2024-01-30T11:08:14.904Z,-4.70
2024-01-30T11:10:51.609Z,-4.70
2024-01-30T11:13:23.699Z,-4.80
2024-01-30T11:15:54.351Z,-4.80
2024-01-30T11:18:28.827Z,-4.90
2024-01-30T11:21:02.598Z,-4.90
2024-01-30T11:23:33.006Z,-5.00
2024-01-30T11:26:04.288Z,-5.00
2024-01-30T11:28:38.522Z,-5.10
2024-01-30T11:31:10.314Z,-5.10
2024-01-30T11:33:40.917Z,-5.20
2024-01-30T11:36:11.793Z,-5.20
2024-01-30T11:38:42.889Z,-5.20
2024-01-30T11:41:16.042Z,-5.30
2024-01-30T11:43:55.960Z,-5.30
2024-01-30T11:46:29.368Z,-5.40
2024-01-30T11:49:00.209Z,-5.50
2024-01-30T11:51:30.652Z,-5.60
2024-01-30T11:54:01.464Z,-5.70
2024-01-30T11:56:31.735Z,-5.80
2024-01-30T11:59:04.282Z,-5.90
2024-01-30T12:01:35.582Z,-6.10
2024-01-30T12:04:10.995Z,-6.20
2024-01-30T12:06:43.212Z,-6.30
2024-01-30T12:09:15.128Z,-6.50
2024-01-30T12:11:48.790Z,-6.60
2024-01-30T12:14:21.183Z,-6.70
2024-01-30T12:16:53.357Z,-6.90
2024-01-30T12:19:27.556Z,-7.00
2024-01-30T12:22:01.295Z,-7.20
2024-01-30T12:24:31.961Z,-7.30
2024-01-30T12:27:02.524Z,-7.40
2024-01-30T12:29:39.136Z,-7.50
2024-01-30T12:32:11.367Z,-7.60
2024-01-30T12:34:54.239Z,-7.70
2024-01-30T12:37:31.772Z,-7.80
2024-01-30T12:40:02.869Z,-7.90
2024-01-30T12:42:33.541Z,-7.90
2024-01-30T12:45:06.676Z,-7.90
2024-01-30T12:47:37.069Z,-8.00
2024-01-30T12:50:07.846Z,-8.00
2024-01-30T12:52:39.606Z,-8.10
2024-01-30T12:55:10.130Z,-8.10
2024-01-30T12:57:41.235Z,-8.10
2024-01-30T13:00:13.847Z,-8.20
2024-01-30T13:02:46.667Z,-8.20
2024-01-30T13:05:17.343Z,-8.10
2024-01-30T13:07:47.786Z,-8.20
2024-01-30T13:10:18.091Z,-8.20
2024-01-30T13:12:48.462Z,-8.10
2024-01-30T13:15:20.729Z,-8.10
2024-01-30T13:17:52.709Z,-8.10
2024-01-30T13:20:23.773Z,-8.10
2024-01-30T13:22:54.236Z,-8.10
2024-01-30T13:25:24.562Z,-8.00
2024-01-30T13:27:54.989Z,-8.00
2024-01-30T13:30:26.936Z,-8.00
2024-01-30T13:32:57.325Z,-7.90
2024-01-30T13:35:27.620Z,-7.80
2024-01-30T13:37:57.959Z,-7.80
2024-01-30T13:40:30.001Z,-7.80
2024-01-30T13:43:00.509Z,-7.70
2024-01-30T13:45:32.436Z,-7.60
2024-01-30T13:48:02.896Z,-7.50
2024-01-30T13:50:34.881Z,-7.50
2024-01-30T13:53:06.827Z,-7.50
2024-01-30T13:55:37.562Z,-7.40
2024-01-30T13:58:08.126Z,-7.40
2024-01-30T14:00:40.176Z,-7.40
2024-01-30T14:03:10.863Z,-7.20
2024-01-30T14:05:42.263Z,-7.20
2024-01-30T14:08:12.808Z,-7.20
2024-01-30T14:10:43.324Z,-7.20
2024-01-30T14:13:14.036Z,-7.10
2024-01-30T14:15:46.303Z,-7.10
2024-01-30T14:18:17.314Z,-6.90
2024-01-30T14:20:48.073Z,-7.00
2024-01-30T14:23:18.670Z,-6.90
2024-01-30T14:25:49.006Z,-6.80
2024-01-30T14:28:19.333Z,-6.80
2024-01-30T14:30:51.327Z,-6.80
2024-01-30T14:33:21.644Z,-6.70
2024-01-30T14:35:52.554Z,-6.80
2024-01-30T14:38:23.152Z,-6.70
2024-01-30T14:40:53.449Z,-6.70
2024-01-30T14:43:24.283Z,-6.60
2024-01-30T14:45:56.282Z,-6.50
2024-01-30T14:48:26.663Z,-6.40
2024-01-30T14:50:57.035Z,-6.40
2024-01-30T14:53:27.576Z,-6.30
2024-01-30T14:55:58.015Z,-6.30
2024-01-30T14:58:28.554Z,-6.20
2024-01-30T15:01:00.700Z,-6.10
2024-01-30T15:03:31.968Z,-5.90
2024-01-30T15:06:02.596Z,-5.90
2024-01-30T15:08:32.982Z,-5.80
2024-01-30T15:11:06.265Z,-5.80
2024-01-30T15:13:36.558Z,-5.80
2024-01-30T15:16:09.706Z,-5.90
2024-01-30T15:21:10.552Z,-6.00
2024-01-30T15:23:40.831Z,-5.90
2024-01-30T15:26:11.386Z,-5.70
2024-01-30T15:28:42.280Z,-5.70
2024-01-30T15:31:14.381Z,-5.60
2024-01-30T15:33:45.043Z,-5.80
2024-01-30T15:36:16.651Z,-5.80
2024-01-30T15:38:46.981Z,-5.70
2024-01-30T15:41:17.202Z,-5.70
2024-01-30T15:43:47.925Z,-5.60
2024-01-30T15:46:19.909Z,-5.50
2024-01-30T15:48:50.633Z,-5.30
2024-01-30T15:51:21.026Z,-5.20
2024-01-30T15:53:51.277Z,-5.20
2024-01-30T15:56:21.930Z,-5.20
2024-01-30T15:58:54.038Z,-5.00
2024-01-30T16:01:26.210Z,-4.90
2024-01-30T16:03:56.744Z,-4.70
2024-01-30T16:06:27.122Z,-4.70
2024-01-30T16:08:57.909Z,-4.80
2024-01-30T16:11:28.125Z,-4.80
2024-01-30T16:13:58.581Z,-4.60
2024-01-30T16:16:30.732Z,-4.50
2024-01-30T16:19:01.387Z,-4.30
2024-01-30T16:21:31.767Z,-4.10
2024-01-30T16:24:02.205Z,-4.10
2024-01-30T16:26:32.731Z,-3.80
2024-01-30T16:29:03.046Z,-3.60
2024-01-30T16:31:34.990Z,-3.80
2024-01-30T16:34:05.409Z,-3.80
2024-01-30T16:36:35.842Z,-3.60
2024-01-30T16:39:06.173Z,-3.20
2024-01-30T16:41:37.120Z,-3.10
2024-01-30T16:44:08.007Z,-2.70
2024-01-30T16:46:41.347Z,-2.50
2024-01-30T16:49:12.599Z,-2.10
2024-01-30T16:51:43.142Z,-1.90
2024-01-30T16:54:13.363Z,-1.80
2024-01-30T16:56:49.556Z,-1.90
2024-01-30T16:59:20.470Z,-2.00
2024-01-30T17:02:03.524Z,-2.10
2024-01-30T17:04:35.127Z,-2.00
2024-01-30T17:07:05.732Z,-1.50
2024-01-30T17:09:36.041Z,-1.70
2024-01-30T17:12:06.631Z,-1.70
2024-01-30T17:14:41.169Z,-1.70
2024-01-30T17:17:14.141Z,-1.50
2024-01-30T17:19:48.864Z,-1.70
2024-01-30T17:22:20.711Z,-2.20
2024-01-30T17:24:51.336Z,-2.20
2024-01-30T17:27:21.796Z,-2.10
2024-01-30T17:29:52.065Z,-2.20
2024-01-30T17:32:24.056Z,-2.70
2024-01-30T17:34:54.505Z,-2.80
2024-01-30T17:37:25.056Z,-2.80
2024-01-30T17:39:55.357Z,-2.70
2024-01-30T17:42:25.696Z,-3.10
2024-01-30T17:44:56.010Z,-2.60
2024-01-30T17:47:27.990Z,-2.90
2024-01-30T17:50:41.520Z,-2.60
2024-01-30T17:53:11.844Z,-2.50
2024-01-30T17:55:42.508Z,-2.60
2024-01-30T17:58:13.134Z,-2.30
2024-01-30T18:00:43.622Z,-2.30
2024-01-30T18:03:15.581Z,-2.40
2024-01-30T18:05:46.084Z,-2.60
2024-01-30T18:08:16.426Z,-2.90
2024-01-30T18:10:46.776Z,-3.00
2024-01-30T18:13:18.632Z,-3.30
2024-01-30T18:15:49.010Z,-3.20
2024-01-30T18:18:21.464Z,-3.10
2024-01-30T18:20:51.934Z,-2.90
2024-01-30T18:23:22.709Z,-2.60
2024-01-30T18:26:01.685Z,-3.00
2024-01-30T18:28:32.932Z,-3.20
2024-01-30T18:31:03.632Z,-3.00
2024-01-30T18:33:35.656Z,-3.10
2024-01-30T18:36:06.549Z,-3.30
2024-01-30T18:38:36.841Z,-3.40
2024-01-30T18:41:07.463Z,-3.30
2024-01-30T18:43:37.953Z,-3.40
2024-01-30T18:46:08.291Z,-3.60
2024-01-30T18:48:40.535Z,-3.80
2024-01-30T18:51:11.244Z,-3.70
2024-01-30T18:53:41.519Z,-3.60
2024-01-30T18:56:11.788Z,-3.50
2024-01-30T18:58:42.114Z,-3.40
2024-01-30T19:01:13.427Z,-3.50
2024-01-30T19:03:46.771Z,-3.40
2024-01-30T19:06:17.309Z,-3.50
2024-01-30T19:08:47.907Z,-3.30
2024-01-30T19:11:24.351Z,-3.20
2024-01-30T19:13:54.680Z,-3.40
2024-01-30T19:16:24.958Z,-3.30
2024-01-30T19:18:57.394Z,-3.40
2024-01-30T19:21:27.982Z,-3.20
2024-01-30T19:24:02.410Z,-3.10
2024-01-30T19:26:32.826Z,-3.20
2024-01-30T19:29:03.380Z,-3.50
2024-01-30T19:31:33.663Z,-3.60
2024-01-30T19:34:06.142Z,-3.50
2024-01-30T19:36:38.496Z,-3.60
2024-01-30T19:39:14.090Z,-3.40
2024-01-30T19:41:45.836Z,-3.40
2024-01-30T19:44:16.738Z,-3.50
2024-01-30T19:46:47.081Z,-3.60
2024-01-30T19:49:19.558Z,-3.50
2024-01-30T19:51:50.388Z,-3.60
2024-01-30T19:54:21.211Z,-3.70
2024-01-30T19:56:51.739Z,-3.80
2024-01-30T19:59:21.999Z,-3.70
2024-01-30T20:01:52.403Z,-3.70
2024-01-30T20:04:25.347Z,-3.70
2024-01-30T20:06:56.313Z,-3.60
2024-01-30T20:09:26.681Z,-3.50
2024-01-30T20:11:56.977Z,-3.60
2024-01-30T20:14:27.261Z,-3.60
2024-01-30T20:16:57.531Z,-3.90
2024-01-30T20:19:29.715Z,-3.90
2024-01-30T20:22:01.900Z,-3.90
2024-01-30T20:24:32.698Z,-4.00
2024-01-30T20:27:02.986Z,-4.20
2024-01-30T20:29:33.840Z,-4.10
2024-01-30T20:32:04.369Z,-4.10
2024-01-30T20:34:36.400Z,-4.20
2024-01-30T20:37:07.463Z,-4.30
2024-01-30T20:39:37.739Z,-4.30
2024-01-30T20:42:08.500Z,-4.30
2024-01-30T20:44:38.742Z,-4.20
2024-01-30T20:47:10.126Z,-4.20
2024-01-30T20:49:42.123Z,-4.30
2024-01-30T20:52:12.553Z,-4.40
2024-01-30T20:54:42.852Z,-4.40
2024-01-30T20:57:13.144Z,-4.40
2024-01-30T20:59:43.511Z,-4.40
2024-01-30T21:02:13.841Z,-4.50
2024-01-30T21:04:45.899Z,-4.40
2024-01-30T21:07:16.374Z,-4.40
2024-01-30T21:09:46.742Z,-4.40
2024-01-30T21:12:17.041Z,-4.50
2024-01-30T21:14:48.675Z,-4.50
2024-01-30T21:17:18.978Z,-4.50
2024-01-30T21:19:51.249Z,-4.60
2024-01-30T21:22:21.657Z,-4.60
2024-01-30T21:24:52.101Z,-4.60
2024-01-30T21:27:22.627Z,-4.70
2024-01-30T21:29:52.913Z,-4.70
2024-01-30T21:32:23.289Z,-4.80
2024-01-30T21:34:55.883Z,-4.70
2024-01-30T21:37:26.357Z,-4.80
2024-01-30T21:39:56.805Z,-4.80
2024-01-30T21:42:27.221Z,-4.90
2024-01-30T21:44:57.649Z,-4.90
2024-01-30T21:47:28.087Z,-5.00
2024-01-30T21:50:00.060Z,-5.00
2024-01-30T21:52:30.441Z,-5.00
2024-01-30T21:55:00.916Z,-5.00
2024-01-30T21:57:31.317Z,-5.00
2024-01-30T22:00:01.668Z,-5.10
2024-01-30T22:02:35.068Z,-5.10
2024-01-30T22:05:07.446Z,-5.10
2024-01-30T22:07:37.826Z,-5.20
2024-01-30T22:10:10.930Z,-5.20
2024-01-30T22:12:41.458Z,-5.30
2024-01-30T22:15:12.569Z,-5.30
2024-01-30T22:17:42.849Z,-5.40
2024-01-30T22:20:15.612Z,-5.40
2024-01-30T22:22:45.924Z,-5.50
2024-01-30T22:25:16.322Z,-5.60
2024-01-30T22:27:46.582Z,-5.60
2024-01-30T22:30:17.253Z,-5.60
2024-01-30T22:32:47.492Z,-5.60
2024-01-30T22:35:19.944Z,-5.70
2024-01-30T22:37:50.245Z,-5.70
2024-01-30T22:40:20.733Z,-5.70
2024-01-30T22:42:51.098Z,-5.70
2024-01-30T22:45:21.551Z,-5.80
2024-01-30T22:47:51.812Z,-5.80
2024-01-30T22:50:23.705Z,-5.80
2024-01-30T22:52:55.586Z,-5.80
2024-01-30T22:55:25.962Z,-5.90
2024-01-30T22:57:57.358Z,-5.90
2024-01-30T23:00:30.106Z,-5.90
2024-01-30T23:03:00.444Z,-5.90
2024-01-30T23:05:35.052Z,-5.90
2024-01-30T23:08:05.324Z,-5.90
2024-01-30T23:10:35.834Z,-5.90
2024-01-30T23:13:06.347Z,-5.90
2024-01-30T23:15:37.249Z,-5.90
2024-01-30T23:18:08.783Z,-5.90
2024-01-30T23:20:40.954Z,-5.90
2024-01-30T23:23:11.749Z,-5.90
2024-01-30T23:25:42.298Z,-5.90
2024-01-30T23:28:12.621Z,-6.00
2024-01-30T23:30:42.940Z,-5.90
2024-01-30T23:33:13.322Z,-5.90
2024-01-30T23:35:45.209Z,-5.90
2024-01-30T23:38:15.558Z,-5.90
2024-01-30T23:40:45.929Z,-5.90
2024-01-30T23:43:16.414Z,-5.90
2024-01-30T23:45:47.808Z,-5.90
2024-01-30T23:48:18.192Z,-5.90
2024-01-30T23:50:51.237Z,-5.90
2024-01-30T23:53:21.555Z,-5.90
2024-01-30T23:55:52.075Z,-5.90
2024-01-30T23:58:22.885Z,-5.90
